Time;durP1;ratioP1;P1;durP2;ratioP2;P2;SDS_P1;SDS_P2;PMS_P1;PMS_P2;Temp;Humidity;BMP_temperature;BMP_pressure;BME280_temperature;BME280_humidity;BME280_pressure;Samples;Min_cycle;Max_cycle;Signal;HPM_P1;HPM_P2
2021/08/29 00:01:15;;;;;;;2.85;0.77;;;;;;;;;;4973421;28;20030;-57
2021/08/29 00:03:41;;;;;;;2.40;0.75;;;;;;;;;;4996711;28;20042;-57
2021/08/29 00:06:06;;;;;;;2.60;0.85;;;;;;;;;;4995858;28;20441;-56
2021/08/29 00:08:32;;;;;;;3.28;1.00;;;;;;;;;;4996307;28;20041;-55
2021/08/29 00:10:58;;;;;;;2.55;0.80;;;;;;;;;;4998395;28;20049;-56
2021/08/29 00:13:24;;;;;;;6.03;0.98;;;;;;;;;;4997038;28;20065;-56
2021/08/29 00:15:50;;;;;;;2.47;0.70;;;;;;;;;;4988547;28;20046;-56
2021/08/29 00:18:15;;;;;;;3.20;1.20;;;;;;;;;;4961018;28;20434;-56
2021/08/29 00:20:41;;;;;;;2.50;0.77;;;;;;;;;;4980144;28;20042;-54
2021/08/29 00:23:07;;;;;;;2.60;1.00;;;;;;;;;;4979969;28;20117;-56
2021/08/29 00:25:33;;;;;;;2.90;0.90;;;;;;;;;;4961099;28;20129;-57
2021/08/29 00:28:00;;;;;;;3.63;0.70;;;;;;;;;;4980555;28;20104;-56
2021/08/29 00:30:26;;;;;;;2.10;0.68;;;;;;;;;;4979935;28;20166;-57
2021/08/29 00:32:52;;;;;;;4.63;0.98;;;;;;;;;;4980213;28;20042;-55
2021/08/29 00:35:18;;;;;;;3.00;1.13;;;;;;;;;;4978473;28;20137;-57
2021/08/29 00:37:44;;;;;;;2.45;0.70;;;;;;;;;;4978134;28;20042;-54
2021/08/29 00:40:10;;;;;;;3.22;0.95;;;;;;;;;;4979899;28;20781;-56
2021/08/29 00:42:36;;;;;;;3.63;0.77;;;;;;;;;;4959559;28;20054;-55
2021/08/29 00:45:02;;;;;;;2.60;0.80;;;;;;;;;;4978857;28;20047;-56
2021/08/29 00:47:30;;;;;;;2.90;0.95;;;;;;;;;;4978942;28;20501;-57
2021/08/29 00:49:56;;;;;;;3.05;0.93;;;;;;;;;;4978471;28;20101;-57
2021/08/29 00:52:22;;;;;;;2.30;0.70;;;;;;;;;;4978018;28;20492;-56
2021/08/29 00:54:47;;;;;;;2.00;0.70;;;;;;;;;;4979801;28;20101;-57
2021/08/29 00:57:13;;;;;;;4.40;0.80;;;;;;;;;;4979264;28;20041;-57
2021/08/29 00:59:40;;;;;;;2.20;0.80;;;;;;;;;;4979113;28;20046;-57
2021/08/29 01:02:13;;;;;;;2.88;1.02;;;;;;;;;;4979652;28;20045;-57
2021/08/29 01:05:00;;;;;;;6.63;1.40;;;;;;;;;;4976654;28;20069;-56
2021/08/29 01:07:31;;;;;;;2.55;0.90;;;;;;;;;;4976933;28;20042;-57
2021/08/29 01:09:58;;;;;;;3.67;1.10;;;;;;;;;;4982888;28;20169;-57
2021/08/29 01:12:26;;;;;;;2.97;1.00;;;;;;;;;;4981018;28;20042;-59
2021/08/29 01:14:53;;;;;;;2.90;1.10;;;;;;;;;;4984122;28;20153;-58
2021/08/29 01:17:20;;;;;;;3.35;1.00;;;;;;;;;;5002256;28;20107;-57
2021/08/29 01:19:50;;;;;;;3.03;0.98;;;;;;;;;;4997873;28;20041;-57
2021/08/29 01:22:16;;;;;;;2.28;0.80;;;;;;;;;;4969305;28;20073;-56
2021/08/29 01:24:42;;;;;;;3.30;1.20;;;;;;;;;;4998297;28;20034;-55
2021/08/29 01:27:17;;;;;;;4.22;0.90;;;;;;;;;;5001386;28;20046;-58
2021/08/29 01:29:43;;;;;;;3.35;1.15;;;;;;;;;;5001854;28;20038;-58
2021/08/29 01:32:09;;;;;;;4.43;1.00;;;;;;;;;;5003226;28;20622;-57
2021/08/29 01:34:35;;;;;;;3.20;0.90;;;;;;;;;;4982262;28;20042;-58
2021/08/29 01:37:02;;;;;;;3.65;0.90;;;;;;;;;;5003560;28;20477;-58
2021/08/29 01:39:28;;;;;;;3.97;0.98;;;;;;;;;;5002709;28;20076;-57
2021/08/29 01:41:54;;;;;;;3.67;0.98;;;;;;;;;;5001944;28;20030;-57
2021/08/29 01:44:21;;;;;;;2.97;1.00;;;;;;;;;;5000423;28;20045;-57
2021/08/29 01:46:47;;;;;;;7.90;1.25;;;;;;;;;;4999989;28;20153;-56
2021/08/29 01:49:13;;;;;;;3.08;0.90;;;;;;;;;;4982632;28;20037;-56
2021/08/29 01:51:40;;;;;;;3.25;1.00;;;;;;;;;;4981174;28;20041;-58
2021/08/29 01:54:06;;;;;;;2.78;0.93;;;;;;;;;;4999220;28;20058;-58
2021/08/29 01:56:51;;;;;;;2.40;0.80;;;;;;;;;;5002657;28;20068;-57
2021/08/29 01:59:17;;;;;;;3.78;0.90;;;;;;;;;;5001875;28;20038;-57
2021/08/29 02:01:43;;;;;;;4.57;1.40;;;;;;;;;;5001196;28;20046;-54
2021/08/29 02:04:09;;;;;;;3.10;0.95;;;;;;;;;;5002514;28;20488;-56
2021/08/29 02:06:43;;;;;;;5.05;1.42;;;;;;;;;;4973760;28;20053;-56
2021/08/29 02:09:10;;;;;;;3.80;1.40;;;;;;;;;;4999312;28;20389;-57
2021/08/29 02:11:40;;;;;;;4.82;1.40;;;;;;;;;;5000009;28;20131;-57
2021/08/29 02:14:08;;;;;;;5.32;2.42;;;;;;;;;;5000938;28;20038;-55
2021/08/29 02:16:36;;;;;;;3.63;1.70;;;;;;;;;;5000390;28;20085;-56
2021/08/29 02:19:02;;;;;;;5.22;2.08;;;;;;;;;;5001996;28;20061;-56
2021/08/29 02:21:29;;;;;;;3.83;1.58;;;;;;;;;;4999038;28;20038;-56
2021/08/29 02:23:56;;;;;;;5.45;1.90;;;;;;;;;;5000280;28;20516;-55
2021/08/29 02:26:24;;;;;;;6.88;2.05;;;;;;;;;;5000024;28;20053;-53
2021/08/29 02:28:51;;;;;;;4.63;1.77;;;;;;;;;;4995931;28;20092;-56
2021/08/29 02:31:20;;;;;;;3.85;1.80;;;;;;;;;;4999130;28;20069;-56
2021/08/29 02:33:47;;;;;;;4.13;1.85;;;;;;;;;;4998592;28;20054;-56
2021/08/29 02:36:14;;;;;;;4.05;1.75;;;;;;;;;;4999996;28;20076;-55
2021/08/29 02:38:40;;;;;;;3.67;1.88;;;;;;;;;;5000609;28;20053;-55
2021/08/29 02:41:06;;;;;;;5.18;2.00;;;;;;;;;;4999489;28;20038;-55
2021/08/29 02:43:33;;;;;;;5.50;1.90;;;;;;;;;;5000344;28;20029;-55
2021/08/29 02:45:59;;;;;;;3.80;1.80;;;;;;;;;;4998488;28;20138;-56
2021/08/29 02:48:25;;;;;;;8.52;2.80;;;;;;;;;;4999327;28;20070;-54
2021/08/29 02:50:51;;;;;;;5.57;2.30;;;;;;;;;;4998710;28;20722;-55
2021/08/29 02:53:17;;;;;;;3.95;1.70;;;;;;;;;;4997908;28;20069;-52
2021/08/29 02:55:47;;;;;;;7.43;2.10;;;;;;;;;;4998163;28;20797;-56
2021/08/29 02:58:13;;;;;;;4.25;2.13;;;;;;;;;;5000481;28;21100;-57
2021/08/29 03:00:38;;;;;;;5.20;2.40;;;;;;;;;;4999304;28;20433;-57
2021/08/29 03:03:04;;;;;;;4.15;1.95;;;;;;;;;;5000343;28;20496;-56
2021/08/29 03:05:30;;;;;;;7.38;2.20;;;;;;;;;;4999322;28;20069;-56
2021/08/29 03:07:57;;;;;;;6.45;2.55;;;;;;;;;;5000251;28;20052;-57
2021/08/29 03:10:23;;;;;;;7.70;2.20;;;;;;;;;;5000552;28;20096;-55
2021/08/29 03:12:49;;;;;;;5.82;2.38;;;;;;;;;;5001345;28;20042;-55
2021/08/29 03:15:15;;;;;;;8.02;2.00;;;;;;;;;;5000221;28;20993;-52
2021/08/29 03:17:41;;;;;;;6.05;2.20;;;;;;;;;;4998760;28;20045;-54
2021/08/29 03:20:08;;;;;;;4.45;1.88;;;;;;;;;;5002089;28;20038;-54
2021/08/29 03:22:34;;;;;;;7.30;2.90;;;;;;;;;;4999590;28;20442;-55
2021/08/29 03:25:00;;;;;;;7.07;2.75;;;;;;;;;;4998209;28;20049;-56
2021/08/29 03:27:26;;;;;;;6.47;2.50;;;;;;;;;;4998359;28;20780;-55
2021/08/29 03:29:52;;;;;;;6.60;2.50;;;;;;;;;;4999984;28;20045;-55
2021/08/29 03:32:21;;;;;;;4.78;1.77;;;;;;;;;;4998510;28;20037;-55
2021/08/29 03:34:50;;;;;;;5.97;2.00;;;;;;;;;;4999114;28;20049;-58
2021/08/29 03:37:18;;;;;;;6.93;2.25;;;;;;;;;;4998926;28;20052;-55
2021/08/29 03:39:44;;;;;;;5.30;2.13;;;;;;;;;;5000231;28;20042;-54
2021/08/29 03:42:10;;;;;;;5.25;1.90;;;;;;;;;;4999314;28;20041;-55
2021/08/29 03:44:36;;;;;;;4.65;1.90;;;;;;;;;;4999034;28;20367;-56
2021/08/29 03:47:02;;;;;;;3.85;1.63;;;;;;;;;;4999632;28;20494;-54
2021/08/29 03:49:28;;;;;;;3.35;1.45;;;;;;;;;;5000614;28;20033;-56
2021/08/29 03:51:55;;;;;;;3.88;1.40;;;;;;;;;;4999495;28;20796;-55
2021/08/29 03:54:21;;;;;;;3.95;1.50;;;;;;;;;;4998377;28;20038;-55
2021/08/29 03:56:47;;;;;;;4.38;1.58;;;;;;;;;;5000510;28;20424;-55
2021/08/29 03:59:13;;;;;;;3.60;1.77;;;;;;;;;;5000054;28;20040;-56
2021/08/29 04:01:39;;;;;;;4.13;1.80;;;;;;;;;;4999837;28;20049;-56
2021/08/29 04:04:05;;;;;;;3.78;1.55;;;;;;;;;;5000916;28;20033;-56
2021/08/29 04:06:32;;;;;;;9.20;1.88;;;;;;;;;;4998006;28;20054;-52
2021/08/29 04:09:02;;;;;;;8.65;2.38;;;;;;;;;;5000601;28;20554;-54
2021/08/29 04:11:29;;;;;;;5.45;2.00;;;;;;;;;;5000106;28;20050;-54
2021/08/29 04:13:55;;;;;;;6.60;2.05;;;;;;;;;;4979743;28;20050;-54
2021/08/29 04:16:21;;;;;;;4.70;2.00;;;;;;;;;;4999773;28;20049;-55
2021/08/29 04:18:47;;;;;;;5.05;1.92;;;;;;;;;;4982475;28;20038;-54
2021/08/29 04:21:14;;;;;;;4.80;2.05;;;;;;;;;;5001680;28;20076;-54
2021/08/29 04:23:40;;;;;;;6.53;2.42;;;;;;;;;;4978565;28;20049;-56
2021/08/29 04:26:07;;;;;;;6.25;2.05;;;;;;;;;;4999195;28;20810;-56
2021/08/29 04:28:33;;;;;;;4.80;2.17;;;;;;;;;;4997401;28;20038;-56
2021/08/29 04:31:00;;;;;;;6.05;2.35;;;;;;;;;;4998533;28;20042;-56
2021/08/29 04:33:27;;;;;;;6.10;2.10;;;;;;;;;;4998393;28;20053;-56
2021/08/29 04:35:53;;;;;;;4.55;2.03;;;;;;;;;;4998533;28;20847;-56
2021/08/29 04:38:19;;;;;;;8.32;2.47;;;;;;;;;;4997765;28;20172;-56
2021/08/29 04:40:45;;;;;;;10.10;3.05;;;;;;;;;;4998420;28;20030;-55
2021/08/29 04:43:11;;;;;;;8.10;2.70;;;;;;;;;;5000300;28;20141;-54
2021/08/29 04:45:37;;;;;;;6.93;2.28;;;;;;;;;;5000162;28;20132;-55
2021/08/29 04:48:02;;;;;;;6.30;2.05;;;;;;;;;;5000024;28;20083;-56
2021/08/29 04:50:31;;;;;;;6.35;1.90;;;;;;;;;;5002990;28;22616;-56
2021/08/29 04:52:57;;;;;;;3.80;1.70;;;;;;;;;;5003618;28;20095;-55
2021/08/29 04:55:23;;;;;;;3.67;1.40;;;;;;;;;;4999991;28;20434;-55
2021/08/29 04:57:49;;;;;;;3.83;1.50;;;;;;;;;;5003632;28;20217;-56
2021/08/29 05:00:15;;;;;;;4.13;1.60;;;;;;;;;;5002590;28;20459;-55
2021/08/29 05:02:40;;;;;;;4.47;1.67;;;;;;;;;;5003385;28;20116;-55
2021/08/29 05:05:06;;;;;;;4.20;1.50;;;;;;;;;;5002449;28;20041;-55
2021/08/29 05:07:32;;;;;;;4.15;1.73;;;;;;;;;;5002496;28;20071;-56
2021/08/29 05:09:58;;;;;;;3.42;1.50;;;;;;;;;;5003092;28;20045;-54
2021/08/29 05:12:24;;;;;;;5.15;1.88;;;;;;;;;;5002361;28;20923;-57
2021/08/29 05:14:50;;;;;;;4.40;1.60;;;;;;;;;;5002809;28;20041;-55
2021/08/29 05:17:16;;;;;;;6.75;1.65;;;;;;;;;;5003831;28;20539;-55
2021/08/29 05:19:42;;;;;;;6.22;1.20;;;;;;;;;;5002679;28;20045;-55
2021/08/29 05:22:08;;;;;;;3.88;1.23;;;;;;;;;;5002446;28;20038;-55
2021/08/29 05:24:34;;;;;;;6.80;1.30;;;;;;;;;;4999463;28;20113;-56
2021/08/29 05:27:00;;;;;;;6.60;1.20;;;;;;;;;;5002422;28;20134;-54
2021/08/29 05:29:26;;;;;;;2.60;0.85;;;;;;;;;;5000132;28;20042;-55
2021/08/29 05:31:52;;;;;;;3.20;0.90;;;;;;;;;;5002413;28;20038;-56
2021/08/29 05:34:17;;;;;;;2.60;1.00;;;;;;;;;;5000545;28;20034;-55
2021/08/29 05:36:43;;;;;;;2.35;0.68;;;;;;;;;;5004114;28;20523;-55
2021/08/29 05:39:09;;;;;;;3.67;1.10;;;;;;;;;;5003133;28;20062;-55
2021/08/29 05:41:35;;;;;;;3.47;0.90;;;;;;;;;;5001255;28;20063;-55
2021/08/29 05:44:01;;;;;;;2.72;0.90;;;;;;;;;;5001289;28;20065;-55
2021/08/29 05:46:27;;;;;;;4.63;1.20;;;;;;;;;;5001571;28;20081;-56
2021/08/29 05:48:53;;;;;;;2.72;0.90;;;;;;;;;;5002605;28;20050;-55
2021/08/29 05:51:19;;;;;;;3.40;0.80;;;;;;;;;;5001550;28;20034;-55
2021/08/29 05:53:45;;;;;;;2.63;0.90;;;;;;;;;;5000363;28;20531;-54
2021/08/29 05:56:11;;;;;;;3.03;0.88;;;;;;;;;;5001041;28;20045;-55
2021/08/29 05:58:37;;;;;;;2.90;0.98;;;;;;;;;;5002070;28;20081;-56
2021/08/29 06:01:03;;;;;;;3.35;0.90;;;;;;;;;;5000852;28;20617;-55
2021/08/29 06:03:30;;;;;;;3.08;1.02;;;;;;;;;;5000067;28;20030;-53
2021/08/29 06:05:56;;;;;;;2.63;0.90;;;;;;;;;;4999282;28;20057;-55
2021/08/29 06:08:22;;;;;;;4.22;0.95;;;;;;;;;;4999309;28;20029;-55
2021/08/29 06:10:48;;;;;;;2.42;1.00;;;;;;;;;;5001386;28;20459;-54
2021/08/29 06:13:14;;;;;;;3.17;0.93;;;;;;;;;;5001216;28;20034;-54
2021/08/29 06:15:40;;;;;;;2.97;1.00;;;;;;;;;;4998438;28;20057;-54
2021/08/29 06:18:06;;;;;;;3.47;1.20;;;;;;;;;;5001893;28;20069;-55
2021/08/29 06:20:31;;;;;;;3.38;0.90;;;;;;;;;;5000692;28;20038;-55
2021/08/29 06:22:57;;;;;;;2.97;0.90;;;;;;;;;;4999749;28;20089;-54
2021/08/29 06:25:23;;;;;;;3.40;0.95;;;;;;;;;;4971288;28;20500;-55
2021/08/29 06:27:49;;;;;;;3.03;1.00;;;;;;;;;;5000053;28;20064;-54
2021/08/29 06:30:15;;;;;;;3.58;1.00;;;;;;;;;;5001750;28;20046;-56
2021/08/29 06:32:40;;;;;;;2.40;0.80;;;;;;;;;;5000384;28;20048;-56
2021/08/29 06:35:06;;;;;;;2.40;0.80;;;;;;;;;;5001220;28;20594;-55
2021/08/29 06:37:32;;;;;;;3.03;0.80;;;;;;;;;;5001027;28;20045;-56
2021/08/29 06:39:58;;;;;;;2.40;0.75;;;;;;;;;;5002438;28;20392;-56
2021/08/29 06:42:24;;;;;;;3.75;0.93;;;;;;;;;;4999377;28;20491;-54
2021/08/29 06:44:49;;;;;;;4.25;1.17;;;;;;;;;;5000513;28;20598;-55
2021/08/29 06:47:15;;;;;;;2.05;0.75;;;;;;;;;;5001159;28;20050;-54
2021/08/29 06:49:41;;;;;;;2.42;0.80;;;;;;;;;;4986813;28;20053;-55
2021/08/29 06:52:07;;;;;;;2.25;0.63;;;;;;;;;;5000593;28;20042;-55
2021/08/29 06:54:34;;;;;;;3.10;1.08;;;;;;;;;;5000515;28;20392;-54
2021/08/29 06:56:59;;;;;;;2.60;0.90;;;;;;;;;;5001134;28;20041;-55
2021/08/29 06:59:25;;;;;;;2.80;0.82;;;;;;;;;;4999913;28;20038;-54
2021/08/29 07:01:51;;;;;;;2.85;0.90;;;;;;;;;;5001191;28;20042;-55
2021/08/29 07:04:17;;;;;;;2.70;0.90;;;;;;;;;;4999932;28;20460;-55
2021/08/29 07:06:43;;;;;;;2.95;0.90;;;;;;;;;;4998625;28;20054;-55
2021/08/29 07:09:08;;;;;;;2.63;0.98;;;;;;;;;;5000903;28;20152;-55
2021/08/29 07:11:34;;;;;;;4.03;0.90;;;;;;;;;;4999815;28;20033;-54
2021/08/29 07:14:00;;;;;;;3.00;0.93;;;;;;;;;;4999894;28;20041;-55
2021/08/29 07:16:26;;;;;;;2.63;0.90;;;;;;;;;;5001167;28;20487;-55
2021/08/29 07:18:52;;;;;;;5.45;0.82;;;;;;;;;;5000406;28;20500;-55
2021/08/29 07:21:17;;;;;;;2.15;0.75;;;;;;;;;;4999317;28;20041;-55
2021/08/29 07:23:43;;;;;;;4.18;0.80;;;;;;;;;;4979167;28;20037;-54
2021/08/29 07:26:13;;;;;;;2.13;0.70;;;;;;;;;;4999323;28;20050;-53
2021/08/29 07:28:41;;;;;;;2.42;0.80;;;;;;;;;;5000561;28;20599;-54
2021/08/29 07:31:07;;;;;;;2.80;0.90;;;;;;;;;;4979425;28;20682;-55
2021/08/29 07:33:33;;;;;;;2.97;1.02;;;;;;;;;;4999303;28;20101;-54
2021/08/29 07:35:58;;;;;;;3.17;0.95;;;;;;;;;;4999754;28;20044;-55
2021/08/29 07:38:24;;;;;;;2.88;0.90;;;;;;;;;;4998355;28;21068;-55
2021/08/29 07:40:50;;;;;;;2.67;0.90;;;;;;;;;;4999288;28;20038;-55
2021/08/29 07:43:16;;;;;;;4.75;1.05;;;;;;;;;;5000063;28;20062;-55
2021/08/29 07:45:42;;;;;;;2.50;0.80;;;;;;;;;;4998679;28;20061;-55
2021/08/29 07:48:08;;;;;;;3.42;0.82;;;;;;;;;;4998378;28;20053;-55
2021/08/29 07:50:33;;;;;;;3.10;1.02;;;;;;;;;;4999514;28;20140;-56
2021/08/29 07:52:59;;;;;;;8.15;1.10;;;;;;;;;;4999812;28;20072;-55
2021/08/29 07:55:25;;;;;;;2.63;0.90;;;;;;;;;;4998214;28;20472;-55
2021/08/29 07:57:51;;;;;;;3.05;0.95;;;;;;;;;;4999869;28;20038;-56
2021/08/29 08:00:17;;;;;;;3.55;0.90;;;;;;;;;;4998757;28;20532;-56
2021/08/29 08:02:43;;;;;;;3.80;1.00;;;;;;;;;;4998591;28;20524;-55
2021/08/29 08:05:09;;;;;;;2.60;0.80;;;;;;;;;;4998932;28;20358;-57
2021/08/29 08:07:34;;;;;;;2.20;0.68;;;;;;;;;;4999501;28;20049;-57
2021/08/29 08:10:00;;;;;;;2.40;0.80;;;;;;;;;;5001222;28;20042;-56
2021/08/29 08:12:26;;;;;;;2.28;0.70;;;;;;;;;;4999574;28;20569;-57
2021/08/29 08:14:52;;;;;;;2.60;0.75;;;;;;;;;;4996486;28;20045;-57
2021/08/29 08:17:18;;;;;;;1.92;0.70;;;;;;;;;;4979482;28;20042;-55
2021/08/29 08:19:44;;;;;;;2.67;0.73;;;;;;;;;;4980276;28;20849;-56
2021/08/29 08:22:10;;;;;;;2.20;0.70;;;;;;;;;;4979329;28;20040;-56
2021/08/29 08:24:35;;;;;;;2.00;0.70;;;;;;;;;;4978732;28;20045;-56
2021/08/29 08:27:01;;;;;;;3.65;0.90;;;;;;;;;;4980665;28;20062;-56
2021/08/29 08:29:27;;;;;;;2.45;0.63;;;;;;;;;;4980480;28;21570;-56
2021/08/29 08:31:53;;;;;;;2.50;0.80;;;;;;;;;;4979478;28;20038;-55
2021/08/29 08:34:19;;;;;;;2.30;0.70;;;;;;;;;;4977712;28;20045;-56
2021/08/29 08:36:45;;;;;;;1.98;0.70;;;;;;;;;;4979128;28;20042;-55
2021/08/29 08:39:10;;;;;;;1.75;0.60;;;;;;;;;;4979655;28;20097;-54
2021/08/29 08:41:36;;;;;;;2.28;0.70;;;;;;;;;;4978581;28;20053;-56
2021/08/29 08:44:02;;;;;;;2.65;0.70;;;;;;;;;;4979785;28;20113;-56
2021/08/29 08:46:28;;;;;;;1.88;0.70;;;;;;;;;;4959454;28;20055;-56
2021/08/29 08:48:56;;;;;;;3.00;0.82;;;;;;;;;;4979071;28;20049;-55
2021/08/29 08:51:25;;;;;;;2.20;0.70;;;;;;;;;;4979005;28;20066;-56
2021/08/29 08:53:52;;;;;;;2.55;0.82;;;;;;;;;;4978125;28;20069;-56
2021/08/29 08:56:19;;;;;;;2.80;0.88;;;;;;;;;;4961446;28;20053;-56
2021/08/29 08:58:45;;;;;;;1.52;0.73;;;;;;;;;;4978584;28;20048;-55
2021/08/29 09:01:11;;;;;;;2.88;0.85;;;;;;;;;;4977939;28;20512;-54
2021/08/29 09:03:37;;;;;;;2.67;0.80;;;;;;;;;;4977920;28;20046;-56
2021/08/29 09:06:04;;;;;;;2.38;0.70;;;;;;;;;;4978404;28;20132;-56
2021/08/29 09:08:31;;;;;;;3.50;0.90;;;;;;;;;;4964064;28;20043;-55
2021/08/29 09:10:56;;;;;;;2.55;0.85;;;;;;;;;;4979376;28;20042;-54
2021/08/29 09:13:22;;;;;;;4.22;0.80;;;;;;;;;;4978440;28;20044;-55
2021/08/29 09:15:48;;;;;;;2.28;0.80;;;;;;;;;;4977162;28;20448;-56
2021/08/29 09:18:14;;;;;;;2.30;0.80;;;;;;;;;;4980722;28;20073;-56
2021/08/29 09:20:40;;;;;;;3.70;1.10;;;;;;;;;;4978933;28;20072;-56
2021/08/29 09:23:07;;;;;;;2.40;0.88;;;;;;;;;;4978915;28;20042;-57
2021/08/29 09:25:40;;;;;;;1.95;0.70;;;;;;;;;;4976521;28;20054;-56
2021/08/29 09:28:08;;;;;;;2.67;0.90;;;;;;;;;;4977766;28;20534;-55
2021/08/29 09:30:34;;;;;;;2.25;0.80;;;;;;;;;;4981562;28;20288;-56
2021/08/29 09:33:02;;;;;;;3.85;0.80;;;;;;;;;;4982057;28;20038;-56
2021/08/29 09:35:29;;;;;;;2.78;0.90;;;;;;;;;;4963666;28;20463;-56
2021/08/29 09:37:55;;;;;;;4.32;0.73;;;;;;;;;;4981566;28;20038;-57
2021/08/29 09:40:26;;;;;;;2.92;0.77;;;;;;;;;;4982601;28;20505;-57
2021/08/29 09:42:54;;;;;;;4.75;0.77;;;;;;;;;;4980856;28;20049;-54
2021/08/29 09:45:20;;;;;;;2.28;0.68;;;;;;;;;;4980814;28;20064;-56
2021/08/29 09:47:46;;;;;;;3.22;0.90;;;;;;;;;;4982515;28;20046;-56
2021/08/29 09:50:13;;;;;;;4.30;0.70;;;;;;;;;;4982608;28;20042;-57
2021/08/29 09:52:40;;;;;;;1.80;0.55;;;;;;;;;;4981876;28;20508;-57
2021/08/29 09:55:06;;;;;;;2.63;0.70;;;;;;;;;;4981100;28;20042;-57
2021/08/29 09:57:32;;;;;;;2.35;0.80;;;;;;;;;;4981313;28;20066;-56
2021/08/29 09:59:58;;;;;;;3.17;0.90;;;;;;;;;;4982318;28;20034;-55
2021/08/29 10:02:24;;;;;;;2.60;0.95;;;;;;;;;;4982570;28;20587;-56
2021/08/29 10:05:08;;;;;;;3.33;0.90;;;;;;;;;;4981663;28;20479;-54
2021/08/29 10:07:35;;;;;;;3.15;0.80;;;;;;;;;;4981550;28;20038;-56
2021/08/29 10:10:19;;;;;;;2.63;0.90;;;;;;;;;;4981885;28;20100;-56
2021/08/29 10:12:45;;;;;;;2.33;0.80;;;;;;;;;;4981772;28;20042;-57
2021/08/29 10:15:11;;;;;;;3.95;0.60;;;;;;;;;;4985069;28;20041;-57
2021/08/29 10:17:40;;;;;;;2.55;0.90;;;;;;;;;;5001273;28;20065;-56
2021/08/29 10:20:06;;;;;;;2.28;0.68;;;;;;;;;;4983376;28;20049;-56
2021/08/29 10:22:34;;;;;;;4.20;0.85;;;;;;;;;;4999653;28;20121;-57
2021/08/29 10:25:01;;;;;;;3.00;0.85;;;;;;;;;;5000442;28;20448;-54
2021/08/29 10:27:27;;;;;;;3.40;1.05;;;;;;;;;;5000846;28;20057;-56
2021/08/29 10:29:55;;;;;;;2.67;0.80;;;;;;;;;;4999573;28;20034;-55
2021/08/29 10:32:24;;;;;;;2.00;0.60;;;;;;;;;;5000096;28;20048;-56
2021/08/29 10:34:51;;;;;;;3.00;0.80;;;;;;;;;;5000925;28;20045;-56
2021/08/29 10:37:17;;;;;;;3.90;0.80;;;;;;;;;;5000689;28;20487;-54
2021/08/29 10:39:43;;;;;;;4.32;0.85;;;;;;;;;;5001387;28;20049;-56
2021/08/29 10:42:10;;;;;;;2.70;0.70;;;;;;;;;;5001343;28;20037;-55
2021/08/29 10:44:36;;;;;;;3.05;0.90;;;;;;;;;;4999089;28;20096;-56
2021/08/29 10:47:02;;;;;;;2.55;0.85;;;;;;;;;;5000345;28;20117;-56
2021/08/29 10:49:29;;;;;;;2.50;0.77;;;;;;;;;;5000739;28;20033;-54
2021/08/29 10:51:56;;;;;;;2.05;0.68;;;;;;;;;;4999159;28;20041;-55
2021/08/29 10:54:22;;;;;;;2.08;0.88;;;;;;;;;;5001444;28;20072;-57
2021/08/29 10:56:48;;;;;;;2.72;0.88;;;;;;;;;;5000942;28;20164;-56
2021/08/29 10:59:22;;;;;;;3.78;0.80;;;;;;;;;;5000690;28;20093;-57
2021/08/29 11:01:49;;;;;;;6.00;0.82;;;;;;;;;;4997801;28;20038;-56
2021/08/29 11:04:21;;;;;;;2.28;0.70;;;;;;;;;;5002246;28;20049;-56
2021/08/29 11:06:48;;;;;;;2.78;0.63;;;;;;;;;;4983609;28;20072;-56
2021/08/29 11:09:40;;;;;;;2.03;0.70;;;;;;;;;;5001956;28;20128;-56
2021/08/29 11:12:07;;;;;;;2.83;0.80;;;;;;;;;;4998551;28;20448;-56
2021/08/29 11:14:39;;;;;;;3.40;0.95;;;;;;;;;;4998750;28;20052;-56
2021/08/29 11:17:11;;;;;;;2.65;0.80;;;;;;;;;;5000102;28;20087;-54
2021/08/29 11:19:38;;;;;;;4.80;0.80;;;;;;;;;;5000546;28;20053;-56
2021/08/29 11:22:04;;;;;;;2.05;0.60;;;;;;;;;;5000069;28;20050;-55
2021/08/29 11:24:50;;;;;;;2.58;0.80;;;;;;;;;;4999885;28;20038;-56
2021/08/29 11:27:38;;;;;;;2.15;0.68;;;;;;;;;;5000828;28;20247;-56
2021/08/29 11:30:18;;;;;;;6.50;1.17;;;;;;;;;;4999046;28;20050;-56
2021/08/29 11:32:53;;;;;;;8.35;0.90;;;;;;;;;;4999948;28;20042;-54
2021/08/29 11:35:24;;;;;;;2.13;0.80;;;;;;;;;;5000587;28;20046;-56
2021/08/29 11:38:10;;;;;;;2.17;0.70;;;;;;;;;;4999965;28;20042;-57
2021/08/29 11:40:46;;;;;;;2.08;0.70;;;;;;;;;;4997461;28;20136;-56
2021/08/29 11:43:16;;;;;;;1.55;0.60;;;;;;;;;;5001151;28;20038;-55
2021/08/29 11:45:44;;;;;;;4.32;0.90;;;;;;;;;;4999077;28;20065;-56
2021/08/29 11:48:09;;;;;;;2.38;0.77;;;;;;;;;;5002161;28;20070;-56
2021/08/29 11:50:36;;;;;;;1.42;0.50;;;;;;;;;;4998928;28;20038;-55
2021/08/29 11:53:02;;;;;;;2.42;0.80;;;;;;;;;;4998025;28;20056;-56
2021/08/29 11:55:28;;;;;;;2.58;1.00;;;;;;;;;;4999731;28;20500;-55
2021/08/29 11:57:54;;;;;;;2.97;1.00;;;;;;;;;;4999257;28;20041;-56
2021/08/29 12:00:23;;;;;;;3.65;1.00;;;;;;;;;;4998538;28;20168;-55
2021/08/29 12:02:51;;;;;;;4.25;1.13;;;;;;;;;;4999912;28;20037;-55
2021/08/29 12:05:17;;;;;;;3.95;1.10;;;;;;;;;;4977204;28;20041;-56
2021/08/29 12:07:57;;;;;;;2.83;1.00;;;;;;;;;;5000519;28;20622;-55
2021/08/29 12:10:24;;;;;;;3.70;1.00;;;;;;;;;;4997019;28;20092;-55
2021/08/29 12:12:50;;;;;;;4.85;1.30;;;;;;;;;;4998401;28;20033;-56
2021/08/29 12:15:17;;;;;;;5.43;1.58;;;;;;;;;;4999258;28;20060;-56
2021/08/29 12:17:43;;;;;;;6.53;1.48;;;;;;;;;;4998004;28;20056;-55
2021/08/29 12:20:10;;;;;;;6.55;1.30;;;;;;;;;;4998639;28;20045;-54
2021/08/29 12:22:36;;;;;;;4.40;1.38;;;;;;;;;;4996905;28;20155;-56
2021/08/29 12:25:02;;;;;;;4.07;1.35;;;;;;;;;;4999027;28;20042;-56
2021/08/29 12:27:28;;;;;;;5.70;1.30;;;;;;;;;;4997730;28;20060;-56
2021/08/29 12:29:57;;;;;;;3.17;1.00;;;;;;;;;;4997897;28;20034;-57
2021/08/29 12:32:24;;;;;;;5.35;1.23;;;;;;;;;;4997543;28;20057;-56
2021/08/29 12:34:58;;;;;;;5.18;1.67;;;;;;;;;;4998147;28;20034;-56
2021/08/29 12:37:25;;;;;;;4.22;1.33;;;;;;;;;;4998770;28;20034;-56
2021/08/29 12:40:20;;;;;;;5.93;1.30;;;;;;;;;;4997223;28;20038;-55
2021/08/29 12:42:46;;;;;;;4.20;1.13;;;;;;;;;;4979633;28;20052;-56
2021/08/29 12:45:14;;;;;;;2.58;0.88;;;;;;;;;;4998153;28;20100;-55
2021/08/29 12:47:40;;;;;;;5.85;1.30;;;;;;;;;;4997761;28;20026;-56
2021/08/29 12:50:08;;;;;;;2.78;0.88;;;;;;;;;;4998024;28;20060;-55
2021/08/29 12:52:39;;;;;;;3.58;1.13;;;;;;;;;;4997668;28;20049;-58
2021/08/29 12:55:18;;;;;;;7.53;1.10;;;;;;;;;;4998540;28;20049;-55
2021/08/29 12:57:44;;;;;;;6.00;1.10;;;;;;;;;;4998144;28;20046;-55
2021/08/29 13:00:10;;;;;;;3.85;1.10;;;;;;;;;;4997613;28;20091;-56
2021/08/29 13:02:37;;;;;;;3.95;0.80;;;;;;;;;;4998647;28;20042;-55
2021/08/29 13:05:03;;;;;;;3.85;0.95;;;;;;;;;;5000043;28;20042;-55
2021/08/29 13:07:29;;;;;;;2.80;1.00;;;;;;;;;;5002286;28;20046;-56
2021/08/29 13:09:57;;;;;;;2.85;1.13;;;;;;;;;;4982658;28;20042;-56
2021/08/29 13:12:24;;;;;;;6.30;1.42;;;;;;;;;;5000908;28;20030;-55
2021/08/29 13:14:50;;;;;;;3.25;0.95;;;;;;;;;;5001757;28;20092;-57
2021/08/29 13:17:17;;;;;;;3.05;1.00;;;;;;;;;;5002929;28;20500;-57
2021/08/29 13:19:53;;;;;;;5.75;1.10;;;;;;;;;;4981624;28;20906;-57
2021/08/29 13:22:25;;;;;;;3.08;0.90;;;;;;;;;;5000868;28;20138;-58
2021/08/29 13:24:51;;;;;;;2.30;0.80;;;;;;;;;;5002137;28;20045;-56
2021/08/29 13:27:18;;;;;;;10.60;1.20;;;;;;;;;;5002508;28;20073;-56
2021/08/29 13:29:44;;;;;;;2.92;1.00;;;;;;;;;;5001594;28;20068;-57
2021/08/29 13:32:11;;;;;;;2.42;0.80;;;;;;;;;;5002409;28;20064;-57
2021/08/29 13:34:36;;;;;;;2.95;1.08;;;;;;;;;;5003093;28;20164;-57
2021/08/29 13:37:03;;;;;;;3.58;1.42;;;;;;;;;;5001376;28;20034;-56
2021/08/29 13:39:30;;;;;;;5.43;0.98;;;;;;;;;;5001329;28;20052;-55
2021/08/29 13:42:14;;;;;;;3.05;1.00;;;;;;;;;;5001406;28;20124;-57
2021/08/29 13:44:46;;;;;;;5.45;1.23;;;;;;;;;;4999975;28;20330;-57
2021/08/29 13:47:12;;;;;;;4.05;1.45;;;;;;;;;;5000851;28;20064;-56
2021/08/29 13:49:37;;;;;;;4.20;1.48;;;;;;;;;;5000879;28;20050;-57
2021/08/29 13:52:04;;;;;;;4.35;1.52;;;;;;;;;;5001766;28;20046;-54
2021/08/29 13:54:29;;;;;;;5.85;1.70;;;;;;;;;;5000806;28;20126;-54
2021/08/29 13:56:55;;;;;;;6.50;2.03;;;;;;;;;;5000778;28;20162;-57
2021/08/29 13:59:21;;;;;;;6.97;1.70;;;;;;;;;;4999869;28;20029;-57
2021/08/29 14:01:47;;;;;;;4.25;1.10;;;;;;;;;;5002345;28;20030;-55
2021/08/29 14:04:13;;;;;;;3.05;0.90;;;;;;;;;;4980534;28;20038;-56
2021/08/29 14:06:38;;;;;;;3.85;0.90;;;;;;;;;;4999659;28;20068;-54
2021/08/29 14:09:04;;;;;;;3.25;1.08;;;;;;;;;;5001800;28;20038;-56
2021/08/29 14:11:30;;;;;;;2.60;0.85;;;;;;;;;;5000442;28;20046;-57
2021/08/29 14:13:56;;;;;;;3.45;1.08;;;;;;;;;;5001353;28;20034;-56
2021/08/29 14:16:22;;;;;;;4.32;0.95;;;;;;;;;;4997589;28;20103;-56
2021/08/29 14:18:48;;;;;;;4.13;1.00;;;;;;;;;;4987414;28;20604;-57
2021/08/29 14:21:13;;;;;;;4.57;0.95;;;;;;;;;;5002491;28;20050;-54
2021/08/29 14:23:39;;;;;;;2.65;0.90;;;;;;;;;;5000218;28;20045;-56
2021/08/29 14:26:05;;;;;;;7.40;1.10;;;;;;;;;;5000155;28;20041;-57
2021/08/29 14:28:31;;;;;;;2.25;0.88;;;;;;;;;;5000233;28;20042;-56
2021/08/29 14:30:57;;;;;;;2.85;0.90;;;;;;;;;;5000049;28;20657;-56
2021/08/29 14:33:22;;;;;;;2.45;0.85;;;;;;;;;;5000311;28;20083;-57
2021/08/29 14:35:48;;;;;;;5.13;0.85;;;;;;;;;;5001386;28;20107;-57
2021/08/29 14:38:15;;;;;;;6.45;1.00;;;;;;;;;;5002536;28;20065;-56
2021/08/29 14:40:43;;;;;;;4.35;1.20;;;;;;;;;;5000457;28;20112;-55
2021/08/29 14:43:09;;;;;;;3.17;1.10;;;;;;;;;;5001969;28;20047;-54